MMMA/MAM METAR and TAF weather

Enter ICAO airport designator
Station Type Date Time Source
MMMA METAR 2019/04/22 17:47 UTC NOAA

MMMA 221747Z 16011G22KT 8SM BKN025 27/19 A3000 RMK SLP159 52007 901 8/500 ISOL CI


Station Type Date Time Source
MMMA Decoded METAR 2019/04/22 17:47 UTC NOAA

Matamoros International , Mexico (MMMA) 25-46N 097-32W
Apr 22, 2019 - 01:47 PM EDT / 2019.04.22 1747 UTC
Wind: from the SSE (160 degrees) at 13 MPH (11 KT) gusting to 25 MPH (22 KT):0
Visibility: 8 mile(s):0
Sky conditions: mostly cloudy
Temperature: 80 F (27 C)
Dew Point: 66 F (19 C)
Relative Humidity: 61%
Pressure (altimeter): 30 in. Hg (1015 hPa)
Pressure tendency: 0.02 inches (0.7 hPa) higher than three hours ago
ob: MMMA 221747Z 16011G22KT 8SM BKN025 27/19 A3000 RMK SLP159 52007 901 8/500 ISOL CI
cycle: 18

Station Type Date Time Source
MMMA TAF 2019/04/22 18:13 UTC NOAA

TAF MMMA 221706Z 2218/2318 14015G25KT P6SM BKN025
FM222000 14020G30KT P6SM SCT030 BKN250
FM230200 14015G25KT P6SM SCT015 BKN200
FM231200 14015KT 5SM HZ OVC010
FM231500 14020KT 5SM HZ BKN020

Example: see airport list